Time;durP1;ratioP1;P1;durP2;ratioP2;P2;SDS_P1;SDS_P2;PMS_P1;PMS_P2;Temp;Humidity;BMP_temperature;BMP_pressure;BME280_temperature;BME280_humidity;BME280_pressure;Samples;Min_cycle;Max_cycle;Signal;HPM_P1;HPM_P2
2021/08/10 05:44:04;;;;;;;221.67;211.43;;;15.50;99.90;;;;;;6173215;22;3151324;-88
2021/08/10 05:46:31;;;;;;;225.17;213.87;;;15.50;99.90;;;;;;6275990;22;20616;-79
2021/08/10 05:49:21;;;;;;;203.70;193.90;;;15.60;99.90;;;;;;6286657;22;20413;-85
2021/08/10 05:51:51;;;;;;;196.60;187.20;;;15.70;99.90;;;;;;6276120;22;20461;-83
2021/08/10 05:54:18;;;;;;;167.77;159.87;;;15.90;99.90;;;;;;6286955;22;20399;-81
2021/08/10 06:00:21;;;;;;;130.43;124.17;;;16.00;99.90;;;;;;6269380;22;20473;-83
2021/08/10 06:03:36;;;;;;;;;;;;;;;;;;;;;
2021/08/10 06:06:04;;;;;;;75.53;72.43;;;16.40;99.90;;;;;;6276535;22;20440;-81
2021/08/10 06:08:41;;;;;;;45.13;42.93;;;16.60;99.90;;;;;;6286353;22;20917;-81
2021/08/10 06:11:22;;;;;;;15.03;14.13;;;16.80;99.90;;;;;;6282369;22;20414;-81
2021/08/10 06:16:31;;;;;;;12.27;11.50;;;17.40;99.90;;;;;;6213915;22;20554;-79
2021/08/10 06:21:35;;;;;;;4.97;3.00;;;18.10;99.90;;;;;;6204651;22;20918;-80
2021/08/10 06:24:48;;;;;;;;;;;;;;;;;;;;;
2021/08/10 06:27:41;;;;;;;5.73;2.43;;;18.90;99.90;;;;;;6190997;23;20419;-81
2021/08/10 06:30:37;;;;;;;5.30;2.90;;;18.90;99.90;;;;;;6241341;23;20457;-81
2021/08/10 06:33:06;;;;;;;6.50;2.70;;;19.10;99.90;;;;;;6235828;22;20915;-80
2021/08/10 06:35:56;;;;;;;6.53;2.87;;;19.20;99.90;;;;;;6256342;23;20399;-82
2021/08/10 06:38:25;;;;;;;5.33;2.33;;;19.20;99.90;;;;;;6245856;23;20425;-82
2021/08/10 06:40:56;;;;;;;9.63;3.17;;;19.20;99.90;;;;;;6254319;23;20473;-81
2021/08/10 06:43:25;;;;;;;11.00;2.93;;;19.10;99.90;;;;;;6246016;23;20727;-81
2021/08/10 06:45:58;;;;;;;7.57;3.73;;;19.50;99.90;;;;;;6245683;23;20399;-81
2021/08/10 06:48:56;;;;;;;4.97;2.53;;;19.60;99.90;;;;;;6255998;23;20425;-82
2021/08/10 06:51:26;;;;;;;5.27;2.90;;;19.50;95.00;;;;;;6175896;23;20929;-81
2021/08/10 06:53:54;;;;;;;8.20;3.20;;;19.10;94.30;;;;;;6255703;23;20407;-82
2021/08/10 06:56:24;;;;;;;10.83;4.80;;;18.80;92.70;;;;;;6244298;23;20407;-84
2021/08/10 06:58:51;;;;;;;6.80;4.57;;;18.70;94.60;;;;;;6231682;22;20458;-83
2021/08/10 07:01:29;;;;;;;7.70;6.00;;;18.60;92.90;;;;;;6225129;23;20459;-84
2021/08/10 07:04:00;;;;;;;7.90;5.77;;;18.80;97.40;;;;;;6215491;23;20395;-84
2021/08/10 07:06:31;;;;;;;6.90;5.40;;;18.90;94.70;;;;;;6222997;23;20412;-83
2021/08/10 07:09:31;;;;;;;5.70;4.80;;;18.90;91.30;;;;;;6225107;23;20419;-83
2021/08/10 07:12:22;;;;;;;;;;;;;;;;;;;;;
2021/08/10 07:14:57;;;;;;;8.67;4.70;;;19.40;91.70;;;;;;6256954;23;20758;-81
2021/08/10 10:03:34;;;;;;;6.07;2.43;;;26.40;26.60;;;;;;6220253;22;20429;31
2021/08/10 11:25:25;;;;;;;5.67;2.60;;;25.10;15.90;;;;;;6222681;22;20531;-81
2021/08/10 11:27:57;;;;;;;5.43;2.57;;;25.00;15.80;;;;;;6196871;23;20741;-82
2021/08/10 11:30:47;;;;;;;4.90;2.03;;;25.50;16.10;;;;;;6196882;23;20475;-81
2021/08/10 11:33:40;;;;;;;6.10;2.70;;;27.00;12.00;;;;;;6186978;23;20915;-80
2021/08/10 11:36:23;;;;;;;5.67;2.43;;;27.00;11.80;;;;;;6187080;23;20440;-78
2021/08/10 11:39:09;;;;;;;4.90;2.13;;;28.10;10.00;;;;;;6187148;23;20733;-81
2021/08/10 11:41:39;;;;;;;8.87;2.97;;;28.20;6.80;;;;;;6185692;23;20386;-76
2021/08/10 11:44:16;;;;;;;5.73;2.50;;;29.10;7.80;;;;;;6178936;23;20402;-78
2021/08/10 11:46:43;;;;;;;6.10;2.43;;;29.10;4.10;;;;;;6184531;23;20407;-80
2021/08/10 11:49:15;;;;;;;4.33;1.60;;;29.00;5.50;;;;;;6186319;23;20405;-80
2021/08/10 11:51:45;;;;;;;5.30;1.70;;;29.20;2.60;;;;;;6185388;23;20447;-78
2021/08/10 11:54:15;;;;;;;7.43;2.20;;;29.90;1.00;;;;;;6185959;23;20412;-80
2021/08/10 11:56:44;;;;;;;5.23;2.43;;;30.40;1.20;;;;;;6184256;23;20881;-82
2021/08/10 11:59:17;;;;;;;5.20;2.47;;;29.90;1.00;;;;;;6185499;23;20445;-78
2021/08/10 12:01:46;;;;;;;5.10;2.47;;;30.10;1.80;;;;;;6186158;23;20379;-81
2021/08/10 12:04:15;;;;;;;4.50;2.50;;;28.70;1.80;;;;;;6185937;23;20476;-80
2021/08/10 12:06:43;;;;;;;4.97;2.30;;;27.80;5.90;;;;;;6195144;23;20408;-80
2021/08/10 12:09:11;;;;;;;5.10;2.20;;;28.20;4.90;;;;;;6185990;23;20397;-81
2021/08/10 12:11:39;;;;;;;6.40;2.20;;;28.00;5.90;;;;;;6184263;23;20519;-77
2021/08/10 12:14:12;;;;;;;4.43;1.90;;;28.40;3.50;;;;;;6185551;23;20408;-81
2021/08/10 12:16:39;;;;;;;6.00;2.03;;;28.90;1.70;;;;;;6186191;23;20424;-82
2021/08/10 12:19:06;;;;;;;4.43;1.73;;;29.30;6.50;;;;;;6186012;23;20722;-79
2021/08/10 12:21:44;;;;;;;8.10;2.37;;;29.10;2.80;;;;;;6185059;23;20401;-81
2021/08/10 12:24:26;;;;;;;5.03;2.10;;;28.30;2.10;;;;;;6185226;23;20880;-83
2021/08/10 12:26:53;;;;;;;5.17;2.13;;;27.00;6.30;;;;;;6184575;23;20500;-80
2021/08/10 12:29:22;;;;;;;4.80;2.20;;;26.70;5.00;;;;;;6185740;23;20714;-81
2021/08/10 12:31:48;;;;;;;4.60;2.10;;;27.60;3.70;;;;;;6185872;23;20433;-81
2021/08/10 12:34:15;;;;;;;4.00;1.60;;;28.30;3.60;;;;;;6186042;23;20408;-77
2021/08/10 12:36:52;;;;;;;6.37;2.20;;;30.00;1.90;;;;;;6185273;23;20405;-79
2021/08/10 12:39:21;;;;;;;4.60;2.17;;;29.40;1.00;;;;;;6185759;23;20400;-82
2021/08/10 12:41:48;;;;;;;6.43;3.13;;;29.40;1.00;;;;;;6183661;23;20877;-77
2021/08/10 12:44:16;;;;;;;5.67;2.57;;;30.60;1.00;;;;;;6186520;23;20733;-81
2021/08/10 15:23:12;;;;;;;5.33;3.63;;;20.40;47.10;;;;;;5869714;24;20756;-77
2021/08/10 15:25:38;;;;;;;8.67;6.23;;;19.90;58.10;;;;;;6047993;23;20412;-78
2021/08/10 15:28:06;;;;;;;9.17;5.80;;;20.00;67.00;;;;;;6094656;23;20407;-77
2021/08/10 15:30:42;;;;;;;7.90;4.80;;;20.20;66.30;;;;;;6095665;23;20847;-83
2021/08/10 15:34:09;;;;;;;;;;;;;;;;;;;;;
2021/08/10 15:37:28;;;;;;;;;;;;;;;;;;;;;
2021/08/10 15:39:56;;;;;;;5.97;4.20;;;19.80;64.40;;;;;;6075816;23;20403;-77
2021/08/10 15:42:23;;;;;;;6.53;4.60;;;19.80;62.00;;;;;;6093946;23;20400;-79
2021/08/10 15:44:50;;;;;;;6.63;5.43;;;19.80;61.60;;;;;;6095472;23;20399;-76
2021/08/10 15:47:18;;;;;;;5.77;3.53;;;19.80;66.00;;;;;;6095533;23;20406;-77
2021/08/10 15:49:47;;;;;;;7.10;4.43;;;19.80;63.50;;;;;;6095490;23;20403;-76
2021/08/10 15:52:14;;;;;;;7.07;4.93;;;19.90;62.80;;;;;;6095212;23;20522;-75
2021/08/10 15:54:40;;;;;;;8.17;5.13;;;19.90;64.40;;;;;;6095522;23;20408;-75
2021/08/10 15:57:08;;;;;;;6.03;4.60;;;20.00;61.90;;;;;;6093738;23;20438;-75
2021/08/10 16:06:42;;;;;;;7.57;3.63;;;20.30;59.60;;;;;;6075177;23;20453;-82
2021/08/10 16:12:36;;;;;;;7.05;4.47;;;20.70;59.10;;;;;;5869395;24;20800;-79
2021/08/10 16:15:03;;;;;;;5.67;3.40;;;20.50;55.60;;;;;;6037920;23;20240;-79
2021/08/10 19:36:13;;;;;;;;;;;;;;;;;;;;;
2021/08/10 19:39:23;;;;;;;215.13;204.47;;;16.60;99.90;;;;;;6065103;23;20532;-85
2021/08/10 20:08:39;;;;;;;243.50;231.27;;;16.40;99.90;;;;;;5955002;23;20554;-85
2021/08/10 20:11:17;;;;;;;248.23;235.63;;;16.40;99.90;;;;;;5944523;23;20414;-87
2021/08/10 20:14:20;;;;;;;238.73;226.70;;;16.50;99.90;;;;;;6097078;23;20421;-85
2021/08/10 20:20:37;;;;;;;242.40;230.40;;;16.60;99.90;;;;;;6152237;23;20508;-84
